| Back to River Map | <<< Previous Forecast Point | | | Next Forecast Point >>> | Printer Version | Graph Version |  |
|
RUSSIAN RIVER - GEYSERVILLE (GEYC1)
| Latitude: 38.71º N | Longitude: 122.89º W | Elevation: 190 Feet | | Forecast Type: Unofficial Location |
| Location: Sonoma County in California | Bulletin Group: Russian Napa | River Group: Russian Napa |
| Issuance Time: | May 09 2026 at 8:04 AM PDT | Next Issuance: | May 10 2026 at 9:00 AM PDT
| |
| Action/Monitor: 38.0 Feet | Minor Flood: 39.7 Feet | Moderate Flood: 46.0 Feet | Major Flood: 50.0 Feet |
# Tabular Observed and Forecast Hydrograph Information
#
# Location: Russian River - Geyserville (GEYC1)
#
# File Generation Time: 05/09/2026 at 08:05 AM PDT
# Data Interval: 1 Hour
#
# Most Recent Date & Time of Maximum Observed: 05/05/2026 at 04:00 PM PDT
# Maximum Observed Stage: 24.83 Feet
# Maximum Observed Flow: 241 cfs
#
# Earliest Date & Time of Maximum Forecast: 05/09/2026 at 08:00 AM PDT
# Maximum Forecast Stage: 24.67 Feet
# Maximum Forecast Flow: 201 cfs
#
# OBSERVED
#
# Date & Time (Local) Stage (Feet) Flow (cfs) Trend Observed Status
# ---------------------------------------------------------------------------------
05/04/2026 08 AM PDT 24.81 236 Normal
05/04/2026 09 AM PDT 24.81 236 0 Normal
05/04/2026 10 AM PDT 24.82 238 + Normal
05/04/2026 11 AM PDT 24.82 238 0 Normal
05/04/2026 12 PM PDT 24.82 238 0 Normal
05/04/2026 01 PM PDT 24.81 236 - Normal
05/04/2026 02 PM PDT 24.81 236 0 Normal
05/04/2026 03 PM PDT 24.82 238 + Normal
05/04/2026 04 PM PDT 24.82 238 0 Normal
05/04/2026 05 PM PDT 24.82 238 0 Normal
05/04/2026 06 PM PDT 24.82 238 0 Normal
05/04/2026 07 PM PDT 24.81 236 - Normal
05/04/2026 08 PM PDT 24.81 236 0 Normal
05/04/2026 09 PM PDT 24.81 236 0 Normal
05/04/2026 10 PM PDT 24.82 238 + Normal
05/04/2026 11 PM PDT 24.82 238 0 Normal
05/05/2026 12 AM PDT 24.82 238 0 Normal
05/05/2026 01 AM PDT 24.80 233 - Normal
05/05/2026 02 AM PDT 24.82 238 + Normal
05/05/2026 03 AM PDT 24.81 236 - Normal
05/05/2026 04 AM PDT 24.80 233 - Normal
05/05/2026 05 AM PDT 24.81 236 + Normal
05/05/2026 06 AM PDT 24.82 238 + Normal
05/05/2026 07 AM PDT 24.82 238 0 Normal
05/05/2026 08 AM PDT 24.81 236 - Normal
05/05/2026 09 AM PDT 24.81 236 0 Normal
05/05/2026 10 AM PDT 24.82 238 + Normal
05/05/2026 11 AM PDT 24.82 238 0 Normal
05/05/2026 12 PM PDT 24.82 238 0 Normal
05/05/2026 01 PM PDT 24.82 238 0 Normal
05/05/2026 02 PM PDT 24.81 236 - Normal
05/05/2026 03 PM PDT 24.81 236 0 Normal
05/05/2026 04 PM PDT 24.83 241 + Normal
05/05/2026 05 PM PDT 24.81 236 - Normal
05/05/2026 06 PM PDT 24.81 236 0 Normal
05/05/2026 07 PM PDT 24.81 236 0 Normal
05/05/2026 08 PM PDT 24.81 236 0 Normal
05/05/2026 09 PM PDT 24.79 231 - Normal
05/05/2026 10 PM PDT 24.80 233 + Normal
05/05/2026 11 PM PDT 24.81 236 + Normal
05/06/2026 12 AM PDT 24.80 233 - Normal
05/06/2026 01 AM PDT 24.79 231 - Normal
05/06/2026 02 AM PDT 24.79 231 0 Normal
05/06/2026 03 AM PDT 24.80 233 + Normal
05/06/2026 04 AM PDT 24.80 233 0 Normal
05/06/2026 05 AM PDT 24.79 231 - Normal
05/06/2026 06 AM PDT 24.77 225 - Normal
05/06/2026 07 AM PDT 24.79 231 + Normal
05/06/2026 08 AM PDT 24.78 228 - Normal
05/06/2026 09 AM PDT 24.77 225 - Normal
05/06/2026 10 AM PDT 24.78 228 + Normal
05/06/2026 11 AM PDT 24.78 228 0 Normal
05/06/2026 12 PM PDT 24.79 231 + Normal
05/06/2026 01 PM PDT 24.78 228 - Normal
05/06/2026 02 PM PDT 24.78 228 0 Normal
05/06/2026 03 PM PDT 24.79 231 + Normal
05/06/2026 04 PM PDT 24.77 225 - Normal
05/06/2026 05 PM PDT 24.78 228 + Normal
05/06/2026 06 PM PDT 24.78 228 0 Normal
05/06/2026 07 PM PDT 24.76 223 - Normal
05/06/2026 08 PM PDT 24.76 223 0 Normal
05/06/2026 09 PM PDT 24.76 223 0 Normal
05/06/2026 10 PM PDT 24.76 223 0 Normal
05/06/2026 11 PM PDT 24.76 223 0 Normal
05/07/2026 12 AM PDT 24.76 223 0 Normal
05/07/2026 01 AM PDT 24.75 220 - Normal
05/07/2026 02 AM PDT 24.75 220 0 Normal
05/07/2026 03 AM PDT 24.75 220 0 Normal
05/07/2026 04 AM PDT 24.76 223 + Normal
05/07/2026 05 AM PDT 24.74 218 - Normal
05/07/2026 06 AM PDT 24.73 216 - Normal
05/07/2026 07 AM PDT 24.72 213 - Normal
05/07/2026 08 AM PDT 24.74 218 + Normal
05/07/2026 09 AM PDT 24.73 216 - Normal
05/07/2026 10 AM PDT 24.73 216 0 Normal
05/07/2026 11 AM PDT 24.74 218 + Normal
05/07/2026 12 PM PDT 24.76 223 + Normal
05/07/2026 01 PM PDT 24.76 223 0 Normal
05/07/2026 02 PM PDT 24.75 220 - Normal
05/07/2026 03 PM PDT 24.74 218 - Normal
05/07/2026 04 PM PDT 24.75 220 + Normal
05/07/2026 05 PM PDT 24.73 216 - Normal
05/07/2026 06 PM PDT 24.72 213 - Normal
05/07/2026 07 PM PDT 24.72 213 0 Normal
05/07/2026 08 PM PDT 24.73 216 + Normal
05/07/2026 09 PM PDT 24.72 213 - Normal
05/07/2026 10 PM PDT 24.72 213 0 Normal
05/07/2026 11 PM PDT 24.73 216 + Normal
05/08/2026 12 AM PDT 24.72 213 - Normal
05/08/2026 01 AM PDT 24.71 211 - Normal
05/08/2026 02 AM PDT 24.72 213 + Normal
05/08/2026 03 AM PDT 24.73 216 + Normal
05/08/2026 04 AM PDT 24.72 213 - Normal
05/08/2026 05 AM PDT 24.71 211 - Normal
05/08/2026 06 AM PDT 24.71 211 0 Normal
05/08/2026 07 AM PDT 24.71 211 0 Normal
05/08/2026 08 AM PDT 24.72 213 + Normal
05/08/2026 09 AM PDT 24.72 213 0 Normal
05/08/2026 10 AM PDT 24.72 213 0 Normal
05/08/2026 11 AM PDT 24.72 213 0 Normal
05/08/2026 12 PM PDT 24.72 213 0 Normal
05/08/2026 01 PM PDT 24.73 216 + Normal
05/08/2026 02 PM PDT 24.72 213 - Normal
05/08/2026 03 PM PDT 24.72 213 0 Normal
05/08/2026 04 PM PDT 24.71 211 - Normal
05/08/2026 05 PM PDT 24.71 211 0 Normal
05/08/2026 06 PM PDT 24.70 208 - Normal
05/08/2026 07 PM PDT 24.69 206 - Normal
05/08/2026 08 PM PDT 24.71 211 + Normal
05/08/2026 09 PM PDT 24.71 211 0 Normal
05/08/2026 10 PM PDT 24.70 208 - Normal
05/08/2026 11 PM PDT 24.70 208 0 Normal
05/09/2026 12 AM PDT 24.69 206 - Normal
05/09/2026 01 AM PDT 24.69 206 0 Normal
05/09/2026 02 AM PDT 24.68 203 - Normal
05/09/2026 03 AM PDT 24.69 206 + Normal
05/09/2026 04 AM PDT 24.68 203 - Normal
05/09/2026 05 AM PDT 24.68 203 0 Normal
05/09/2026 06 AM PDT 24.68 203 0 Normal
05/09/2026 07 AM PDT 24.67 201 - Normal
#
# FORECAST
#
# Date & Time (Local) Stage (Feet) Flow (cfs) Trend Forecast Status
# ---------------------------------------------------------------------------------
05/09/2026 08 AM PDT 24.67 201 Normal
05/09/2026 09 AM PDT 24.66 199 - Normal
05/09/2026 10 AM PDT 24.66 199 0 Normal
05/09/2026 11 AM PDT 24.66 199 0 Normal
05/09/2026 12 PM PDT 24.66 199 0 Normal
05/09/2026 01 PM PDT 24.66 199 0 Normal
05/09/2026 02 PM PDT 24.66 199 0 Normal
05/09/2026 03 PM PDT 24.66 199 0 Normal
05/09/2026 04 PM PDT 24.66 199 0 Normal
05/09/2026 05 PM PDT 24.66 199 0 Normal
05/09/2026 06 PM PDT 24.66 199 0 Normal
05/09/2026 07 PM PDT 24.66 199 0 Normal
05/09/2026 08 PM PDT 24.66 199 0 Normal
05/09/2026 09 PM PDT 24.66 199 0 Normal
05/09/2026 10 PM PDT 24.66 199 0 Normal
05/09/2026 11 PM PDT 24.66 199 0 Normal
05/10/2026 12 AM PDT 24.66 199 0 Normal
05/10/2026 01 AM PDT 24.66 199 0 Normal
05/10/2026 02 AM PDT 24.66 199 0 Normal
05/10/2026 03 AM PDT 24.66 199 0 Normal
05/10/2026 04 AM PDT 24.66 199 0 Normal
05/10/2026 05 AM PDT 24.66 199 0 Normal
05/10/2026 06 AM PDT 24.65 196 - Normal
05/10/2026 07 AM PDT 24.65 196 0 Normal
05/10/2026 08 AM PDT 24.65 196 0 Normal
05/10/2026 09 AM PDT 24.65 196 0 Normal
05/10/2026 10 AM PDT 24.65 196 0 Normal
05/10/2026 11 AM PDT 24.65 196 0 Normal
05/10/2026 12 PM PDT 24.65 196 0 Normal
05/10/2026 01 PM PDT 24.65 196 0 Normal
05/10/2026 02 PM PDT 24.65 196 0 Normal
05/10/2026 03 PM PDT 24.65 196 0 Normal
05/10/2026 04 PM PDT 24.64 194 - Normal
05/10/2026 05 PM PDT 24.64 194 0 Normal
05/10/2026 06 PM PDT 24.64 194 0 Normal
05/10/2026 07 PM PDT 24.64 194 0 Normal
05/10/2026 08 PM PDT 24.64 194 0 Normal
05/10/2026 09 PM PDT 24.64 194 0 Normal
05/10/2026 10 PM PDT 24.64 194 0 Normal
05/10/2026 11 PM PDT 24.64 194 0 Normal
05/11/2026 12 AM PDT 24.64 194 0 Normal
05/11/2026 01 AM PDT 24.64 194 0 Normal
05/11/2026 02 AM PDT 24.64 194 0 Normal
05/11/2026 03 AM PDT 24.64 194 0 Normal
05/11/2026 04 AM PDT 24.64 194 0 Normal
05/11/2026 05 AM PDT 24.64 194 0 Normal
05/11/2026 06 AM PDT 24.63 192 - Normal
05/11/2026 07 AM PDT 24.63 192 0 Normal
05/11/2026 08 AM PDT 24.63 192 0 Normal
05/11/2026 09 AM PDT 24.63 192 0 Normal
05/11/2026 10 AM PDT 24.63 192 0 Normal
05/11/2026 11 AM PDT 24.63 192 0 Normal
05/11/2026 12 PM PDT 24.63 192 0 Normal
05/11/2026 01 PM PDT 24.63 192 0 Normal
05/11/2026 02 PM PDT 24.63 192 0 Normal
05/11/2026 03 PM PDT 24.63 192 0 Normal
05/11/2026 04 PM PDT 24.63 192 0 Normal
05/11/2026 05 PM PDT 24.62 189 - Normal
05/11/2026 06 PM PDT 24.62 189 0 Normal
05/11/2026 07 PM PDT 24.62 189 0 Normal
05/11/2026 08 PM PDT 24.62 189 0 Normal
05/11/2026 09 PM PDT 24.62 189 0 Normal
05/11/2026 10 PM PDT 24.62 189 0 Normal
05/11/2026 11 PM PDT 24.62 189 0 Normal
05/12/2026 12 AM PDT 24.62 189 0 Normal
05/12/2026 01 AM PDT 24.62 189 0 Normal
05/12/2026 02 AM PDT 24.62 189 0 Normal
05/12/2026 03 AM PDT 24.62 189 0 Normal
05/12/2026 04 AM PDT 24.61 187 - Normal
05/12/2026 05 AM PDT 24.61 187 0 Normal
05/12/2026 06 AM PDT 24.61 187 0 Normal
05/12/2026 07 AM PDT 24.61 187 0 Normal
05/12/2026 08 AM PDT 24.61 187 0 Normal
05/12/2026 09 AM PDT 24.61 187 0 Normal
05/12/2026 10 AM PDT 24.61 187 0 Normal
05/12/2026 11 AM PDT 24.61 187 0 Normal
05/12/2026 12 PM PDT 24.61 187 0 Normal
05/12/2026 01 PM PDT 24.61 187 0 Normal
05/12/2026 02 PM PDT 24.61 187 0 Normal
05/12/2026 03 PM PDT 24.61 187 0 Normal
05/12/2026 04 PM PDT 24.61 187 0 Normal
05/12/2026 05 PM PDT 24.61 187 0 Normal
05/12/2026 06 PM PDT 24.60 185 - Normal
05/12/2026 07 PM PDT 24.60 185 0 Normal
05/12/2026 08 PM PDT 24.60 185 0 Normal
05/12/2026 09 PM PDT 24.60 185 0 Normal
05/12/2026 10 PM PDT 24.60 185 0 Normal
05/12/2026 11 PM PDT 24.60 185 0 Normal
05/13/2026 12 AM PDT 24.60 185 0 Normal
05/13/2026 01 AM PDT 24.60 185 0 Normal
05/13/2026 02 AM PDT 24.60 185 0 Normal
05/13/2026 03 AM PDT 24.60 185 0 Normal
05/13/2026 04 AM PDT 24.59 182 - Normal
05/13/2026 05 AM PDT 24.59 182 0 Normal
05/13/2026 06 AM PDT 24.59 182 0 Normal
05/13/2026 07 AM PDT 24.59 182 0 Normal
05/13/2026 08 AM PDT 24.59 182 0 Normal
05/13/2026 09 AM PDT 24.59 182 0 Normal
05/13/2026 10 AM PDT 24.59 182 0 Normal
05/13/2026 11 AM PDT 24.59 182 0 Normal
05/13/2026 12 PM PDT 24.59 182 0 Normal
05/13/2026 01 PM PDT 24.59 182 0 Normal
05/13/2026 02 PM PDT 24.59 182 0 Normal
05/13/2026 03 PM PDT 24.59 182 0 Normal
05/13/2026 04 PM PDT 24.59 182 0 Normal
05/13/2026 05 PM PDT 24.58 180 - Normal
05/13/2026 06 PM PDT 24.58 180 0 Normal
05/13/2026 07 PM PDT 24.58 180 0 Normal
05/13/2026 08 PM PDT 24.58 180 0 Normal
05/13/2026 09 PM PDT 24.58 180 0 Normal
05/13/2026 10 PM PDT 24.58 180 0 Normal
05/13/2026 11 PM PDT 24.58 180 0 Normal
05/14/2026 12 AM PDT 24.58 180 0 Normal
05/14/2026 01 AM PDT 24.58 180 0 Normal
05/14/2026 02 AM PDT 24.58 180 0 Normal
05/14/2026 03 AM PDT 24.58 180 0 Normal
05/14/2026 04 AM PDT 24.57 178 - Normal
05/14/2026 05 AM PDT 24.57 178 0 Normal
#
# NOTE 1: Stages are rounded to the nearest hundredth (.01) of a foot.
# NOTE 2: Flows are rounded to the nearest (1) cfs.
# NOTE 3: Trends are determined using hourly change in unrounded stage and flow.
# NOTE 4: Maximum Values are determined using unrounded stage and flow.
|